createdAt,value
2022-08-25T00:02:02.970Z,100597.41
2022-08-25T00:04:29.866Z,100597.41
2022-08-25T00:07:00.695Z,100597.41
2022-08-25T00:09:29.041Z,100607.13
2022-08-25T00:11:55.681Z,100602.75
2022-08-25T00:14:24.532Z,100601.91
2022-08-25T00:16:51.139Z,100597.41
2022-08-25T00:19:20.142Z,100597.41
2022-08-25T00:21:46.902Z,100594.75
2022-08-25T00:24:14.613Z,100602.75
2022-08-25T00:26:42.460Z,100597.41
2022-08-25T00:29:09.628Z,100597.41
2022-08-25T00:31:37.928Z,100593.78
2022-08-25T00:34:13.004Z,100593.78
2022-08-25T00:36:39.632Z,100592.06
2022-08-25T00:39:07.264Z,100584.06
2022-08-25T00:41:35.258Z,100592.06
2022-08-25T00:44:04.496Z,100592.06
2022-08-25T00:46:36.741Z,100585.87
2022-08-25T00:49:08.724Z,100586.75
2022-08-25T00:51:46.975Z,100586.75
2022-08-25T00:54:16.879Z,100588.44
2022-08-25T00:56:43.587Z,100586.75
2022-08-25T00:59:10.137Z,100592.06
2022-08-25T01:01:37.032Z,100593.78
2022-08-25T01:04:03.895Z,100594.75
2022-08-25T01:06:30.535Z,100590.25
2022-08-25T01:08:57.435Z,100584.94
2022-08-25T01:11:24.012Z,100586.75
2022-08-25T01:13:54.891Z,100592.06
2022-08-25T01:16:21.502Z,100583.22
2022-08-25T01:18:56.488Z,100581.41
2022-08-25T01:21:23.931Z,100583.22
2022-08-25T01:23:50.712Z,100584.06
2022-08-25T01:26:19.925Z,100587.69
2022-08-25T01:29:15.158Z,100582.34
2022-08-25T01:31:41.945Z,100580.53
2022-08-25T01:34:08.851Z,100577.88
2022-08-25T01:36:35.653Z,100575.19
2022-08-25T01:39:03.188Z,100576.06
2022-08-25T01:41:29.718Z,100577.03
2022-08-25T01:43:56.306Z,100577.88
2022-08-25T01:46:22.992Z,100577.03
2022-08-25T01:48:49.625Z,100576.06
2022-08-25T01:51:16.415Z,100581.41
2022-08-25T01:53:44.207Z,100579.69
2022-08-25T01:56:11.785Z,100581.50
2022-08-25T01:58:40.712Z,100578.72
2022-08-25T02:01:09.611Z,100579.69
2022-08-25T02:03:38.655Z,100579.69
2022-08-25T02:06:08.938Z,100579.69
2022-08-25T02:08:36.411Z,100573.50
2022-08-25T02:11:03.351Z,100569.97
2022-08-25T02:13:31.565Z,100568.16
2022-08-25T02:16:00.216Z,100576.16
2022-08-25T02:18:26.826Z,100573.50
2022-08-25T02:20:54.247Z,100581.50
2022-08-25T02:23:21.093Z,100575.31
2022-08-25T02:25:47.680Z,100571.69
2022-08-25T02:28:14.231Z,100563.66
2022-08-25T02:30:42.539Z,100575.19
2022-08-25T02:33:12.307Z,100577.03
2022-08-25T02:35:38.920Z,100573.50
2022-08-25T02:38:05.719Z,100567.31
2022-08-25T02:40:32.412Z,100561.97
2022-08-25T02:42:59.059Z,100567.31
2022-08-25T02:45:25.645Z,100561.97
2022-08-25T02:47:52.759Z,100561.97
2022-08-25T02:50:19.470Z,100560.16
2022-08-25T02:52:46.334Z,100563.66
2022-08-25T02:55:14.304Z,100567.31
2022-08-25T02:57:42.110Z,100565.50
2022-08-25T03:00:10.906Z,100568.16
2022-08-25T03:02:41.390Z,100571.69
2022-08-25T03:05:09.389Z,100572.63
2022-08-25T03:07:36.353Z,100558.34
2022-08-25T03:10:08.097Z,100559.28
2022-08-25T03:12:35.310Z,100563.66
2022-08-25T03:15:02.047Z,100559.28
2022-08-25T03:17:29.530Z,100561.09
2022-08-25T03:19:56.831Z,100553.00
2022-08-25T03:22:23.456Z,100557.47
2022-08-25T03:24:50.036Z,100555.66
2022-08-25T03:27:16.738Z,100558.34
2022-08-25T03:29:43.349Z,100558.34
2022-08-25T03:32:10.141Z,100556.63
2022-08-25T03:34:36.786Z,100559.28
2022-08-25T03:37:03.591Z,100562.81
2022-08-25T03:39:30.197Z,100562.94
2022-08-25T03:41:56.944Z,100569.97
2022-08-25T03:44:23.579Z,100563.78
2022-08-25T03:46:51.630Z,100557.59
2022-08-25T03:49:22.986Z,100560.25
2022-08-25T03:51:50.758Z,100564.62
2022-08-25T03:54:20.105Z,100559.28
2022-08-25T03:56:47.366Z,100560.25
2022-08-25T03:59:14.000Z,100564.62
2022-08-25T04:01:42.068Z,100561.09
2022-08-25T04:04:09.203Z,100556.63
2022-08-25T04:06:35.794Z,100567.31
2022-08-25T04:09:02.450Z,100564.72
2022-08-25T04:11:29.072Z,100571.78
2022-08-25T04:14:01.043Z,100568.25
2022-08-25T04:16:31.204Z,100571.78
2022-08-25T04:18:59.506Z,100569.13
2022-08-25T04:21:26.207Z,100572.63
2022-08-25T04:23:53.147Z,100577.13
2022-08-25T04:26:20.794Z,100571.00
2022-08-25T04:28:47.416Z,100575.38
2022-08-25T04:31:17.306Z,100565.59
2022-08-25T04:33:44.027Z,100571.78
2022-08-25T04:36:13.631Z,100569.13
2022-08-25T04:38:40.844Z,100562.94
2022-08-25T04:41:08.025Z,100567.31
2022-08-25T04:43:34.819Z,100569.13
2022-08-25T04:46:08.308Z,100565.66
2022-08-25T04:48:35.250Z,100563.78
2022-08-25T04:51:06.138Z,100566.44
2022-08-25T04:53:33.644Z,100563.78
2022-08-25T04:56:03.652Z,100564.62
2022-08-25T04:58:30.639Z,100569.13
2022-08-25T05:01:15.780Z,100564.72
2022-08-25T05:03:42.910Z,100570.03
2022-08-25T05:06:13.997Z,100570.03
2022-08-25T05:08:42.401Z,100570.03
2022-08-25T05:11:14.374Z,100564.72
2022-08-25T05:13:41.310Z,100568.34
2022-08-25T05:16:09.944Z,100560.31
2022-08-25T05:18:41.390Z,100559.37
2022-08-25T05:21:10.564Z,100558.50
2022-08-25T05:23:37.256Z,100560.25
2022-08-25T05:26:09.207Z,100557.66
2022-08-25T05:28:35.854Z,100562.03
2022-08-25T05:31:02.931Z,100563.00
2022-08-25T05:33:30.618Z,100559.47
2022-08-25T05:35:59.776Z,100559.56
2022-08-25T05:38:26.536Z,100566.72
2022-08-25T05:41:05.016Z,100560.53
2022-08-25T05:43:31.928Z,100566.81
2022-08-25T05:45:58.908Z,100555.47
2022-08-25T05:48:26.524Z,100566.16
2022-08-25T05:51:00.565Z,100564.41
2022-08-25T05:53:27.693Z,100558.22
2022-08-25T05:55:58.391Z,100556.63
2022-08-25T05:58:25.896Z,100551.34
2022-08-25T06:00:52.521Z,100559.47
2022-08-25T06:03:19.163Z,100554.19
2022-08-25T06:05:45.846Z,100549.72
2022-08-25T06:08:12.418Z,100556.00
2022-08-25T06:10:39.045Z,100560.41
2022-08-25T06:13:06.499Z,100563.84
2022-08-25T06:15:33.981Z,100564.69
2022-08-25T06:18:01.846Z,100562.03
2022-08-25T06:20:30.982Z,100561.09
2022-08-25T06:22:57.899Z,100569.13
2022-08-25T06:25:25.316Z,100567.28
2022-08-25T06:27:52.096Z,100560.16
2022-08-25T06:30:28.430Z,100566.34
2022-08-25T06:32:55.378Z,100572.53
2022-08-25T06:35:22.738Z,100569.00
2022-08-25T06:37:49.385Z,100577.00
2022-08-25T06:40:16.514Z,100576.16
2022-08-25T06:42:43.227Z,100582.34
2022-08-25T06:45:10.182Z,100581.50
2022-08-25T06:47:36.761Z,100582.34
2022-08-25T06:50:04.503Z,100584.06
2022-08-25T06:52:31.645Z,100577.00
2022-08-25T06:54:58.241Z,100579.56
2022-08-25T06:57:27.412Z,100571.56
2022-08-25T06:59:54.866Z,100581.38
2022-08-25T07:02:22.012Z,100579.50
2022-08-25T07:04:49.526Z,100579.56
2022-08-25T07:07:16.095Z,100582.25
2022-08-25T07:09:43.062Z,100582.19
2022-08-25T07:12:09.648Z,100584.84
2022-08-25T07:14:36.870Z,100581.22
2022-08-25T07:17:12.040Z,100573.22
2022-08-25T07:19:39.201Z,100577.69
2022-08-25T07:22:07.684Z,100578.44
2022-08-25T07:24:35.997Z,100572.16
2022-08-25T07:27:02.587Z,100573.00
2022-08-25T07:29:32.611Z,100571.22
2022-08-25T07:32:02.940Z,100573.88
2022-08-25T07:34:51.976Z,100566.72
2022-08-25T07:37:27.586Z,100574.62
2022-08-25T07:40:07.484Z,100576.44
2022-08-25T07:42:34.118Z,100575.50
2022-08-25T07:45:00.681Z,100579.78
2022-08-25T07:47:27.277Z,100576.06
2022-08-25T07:49:53.851Z,100571.56
2022-08-25T07:52:21.390Z,100565.28
2022-08-25T07:54:47.986Z,100565.19
2022-08-25T07:57:14.551Z,100569.56
2022-08-25T07:59:41.843Z,100562.44
2022-08-25T08:02:18.705Z,100565.94
2022-08-25T08:04:49.384Z,100572.06
2022-08-25T08:07:20.489Z,100569.28
2022-08-25T08:09:53.111Z,100563.94
2022-08-25T08:12:27.088Z,100562.13
2022-08-25T08:14:54.079Z,100560.25
2022-08-25T08:17:20.667Z,100563.78
2022-08-25T08:19:47.589Z,100582.34
2022-08-25T08:22:16.943Z,100568.16
2022-08-25T08:24:54.562Z,100574.25
2022-08-25T08:27:22.958Z,100573.38
2022-08-25T08:29:49.636Z,100577.69
2022-08-25T08:32:17.953Z,100578.53
2022-08-25T08:34:46.189Z,100572.25
2022-08-25T08:37:13.002Z,100569.47
2022-08-25T08:39:39.715Z,100563.28
2022-08-25T08:42:26.599Z,100562.31
2022-08-25T08:45:20.460Z,100553.38
2022-08-25T08:47:57.079Z,100559.56
2022-08-25T08:50:33.019Z,100557.75
2022-08-25T08:53:15.007Z,100565.75
2022-08-25T08:55:52.684Z,100555.81
2022-08-25T08:58:50.274Z,100554.91
2022-08-25T09:01:44.307Z,100551.34
2022-08-25T09:04:16.464Z,100560.22
2022-08-25T09:06:45.320Z,100559.28
2022-08-25T09:09:12.825Z,100553.94
2022-08-25T09:11:57.584Z,100552.97
2022-08-25T09:14:38.425Z,100557.28
2022-08-25T09:17:21.585Z,100547.44
2022-08-25T09:20:25.517Z,100538.47
2022-08-25T09:23:14.800Z,100541.03
2022-08-25T09:25:54.044Z,100537.38
2022-08-25T09:28:51.585Z,100534.72
2022-08-25T09:31:29.876Z,100532.91
2022-08-25T09:33:57.715Z,100528.34
2022-08-25T09:36:24.704Z,100531.87
2022-08-25T09:38:51.695Z,100519.38
2022-08-25T09:41:34.865Z,100517.53
2022-08-25T09:44:02.215Z,100510.38
2022-08-25T09:46:29.258Z,100507.63
2022-08-25T09:48:57.713Z,100512.97
2022-08-25T09:51:28.432Z,100512.00
2022-08-25T09:54:00.689Z,100508.37
2022-08-25T09:56:31.960Z,100496.84
2022-08-25T09:59:34.174Z,100498.53
2022-08-25T10:02:20.944Z,100491.37
2022-08-25T10:04:47.611Z,100489.56
2022-08-25T10:07:38.098Z,100490.44
2022-08-25T10:10:08.316Z,100480.63
2022-08-25T10:12:42.599Z,100479.66
2022-08-25T10:15:30.131Z,100475.28
2022-08-25T10:18:01.886Z,100476.97
2022-08-25T10:20:33.028Z,100466.28
2022-08-25T10:23:13.112Z,100474.91
2022-08-25T10:25:58.994Z,100464.59
2022-08-25T10:28:38.483Z,100469.72
2022-08-25T10:31:20.912Z,100456.59
2022-08-25T10:33:52.407Z,100457.00
2022-08-25T10:36:47.173Z,100456.78
2022-08-25T10:39:40.726Z,100451.75
2022-08-25T10:42:47.681Z,100448.59
2022-08-25T10:45:39.784Z,100443.66
2022-08-25T10:48:37.957Z,100448.59
2022-08-25T10:52:02.225Z,100439.91
2022-08-25T10:54:57.971Z,100445.81
2022-08-25T10:57:40.268Z,100440.78
2022-08-25T11:00:14.082Z,100441.72
2022-08-25T11:03:00.510Z,100439.16
2022-08-25T11:05:47.240Z,100437.53
2022-08-25T11:08:39.614Z,100436.00
2022-08-25T11:11:27.496Z,100428.09
2022-08-25T11:14:40.394Z,100424.69
2022-08-25T11:17:29.324Z,100415.06
2022-08-25T11:19:59.308Z,100421.41
2022-08-25T11:23:34.000Z,100411.72
2022-08-25T11:26:04.355Z,100411.81
2022-08-25T11:28:49.774Z,100409.25
2022-08-25T11:31:16.399Z,100406.78
2022-08-25T11:33:43.181Z,100404.09
2022-08-25T11:36:30.053Z,100407.78
2022-08-25T11:39:10.524Z,100392.75
2022-08-25T11:41:42.427Z,100389.13
2022-08-25T11:44:15.930Z,100380.22
2022-08-25T11:46:52.546Z,100374.94
2022-08-25T11:49:37.880Z,100378.56
2022-08-25T11:52:30.522Z,100380.38
2022-08-25T11:55:05.525Z,100373.13
2022-08-25T11:57:32.167Z,100367.16
2022-08-25T12:00:16.003Z,100358.31
2022-08-25T12:02:45.953Z,100368.03
2022-08-25T12:05:35.403Z,100360.06
2022-08-25T12:08:24.514Z,100363.66
2022-08-25T12:11:10.580Z,100367.06
2022-08-25T12:13:51.001Z,100359.16
2022-08-25T12:16:35.847Z,100361.00
2022-08-25T12:19:24.096Z,100345.22
2022-08-25T12:21:50.895Z,100356.81
2022-08-25T12:24:36.102Z,100359.78
2022-08-25T12:30:27.995Z,100355.03
2022-08-25T12:33:13.053Z,100358.72
2022-08-25T12:35:55.128Z,100355.47
2022-08-25T12:38:42.466Z,100345.97
2022-08-25T12:41:12.614Z,100353.00
2022-08-25T12:43:44.099Z,100351.00
2022-08-25T12:46:19.822Z,100347.50
2022-08-25T12:49:25.296Z,100341.38
2022-08-25T12:52:05.000Z,100336.06
2022-08-25T12:54:52.346Z,100335.31
2022-08-25T12:58:04.279Z,100336.25
2022-08-25T13:00:37.968Z,100333.66
2022-08-25T13:03:25.913Z,100335.47
2022-08-25T13:06:14.129Z,100328.53
2022-08-25T13:08:49.973Z,100325.97
2022-08-25T13:11:38.765Z,100321.22
2022-08-25T13:14:26.797Z,100326.75
2022-08-25T13:16:55.363Z,100321.69
2022-08-25T13:19:22.532Z,100325.78
2022-08-25T13:21:49.145Z,100323.69
2022-08-25T13:24:26.839Z,100318.09
2022-08-25T13:27:05.002Z,100316.13
2022-08-25T13:29:36.844Z,100318.59
2022-08-25T13:32:09.959Z,100314.00
2022-08-25T13:34:42.559Z,100312.97
2022-08-25T13:37:29.811Z,100306.56
2022-08-25T13:40:14.423Z,100304.69
2022-08-25T13:42:54.430Z,100308.09
2022-08-25T13:45:24.541Z,100297.31
2022-08-25T13:47:55.846Z,100291.91
2022-08-25T13:50:33.789Z,100293.63
2022-08-25T13:53:02.010Z,100297.87
2022-08-25T13:55:38.203Z,100297.87
2022-08-25T13:58:24.943Z,100295.16
2022-08-25T14:01:23.285Z,100296.84
2022-08-25T14:04:21.276Z,100294.06
2022-08-25T14:06:48.032Z,100289.59
2022-08-25T14:09:17.290Z,100292.19
2022-08-25T14:11:49.890Z,100282.38
2022-08-25T14:14:23.353Z,100286.75
2022-08-25T14:17:16.403Z,100282.16
2022-08-25T14:19:48.904Z,100284.81
2022-08-25T14:22:15.899Z,100275.03
2022-08-25T14:24:42.531Z,100272.25
2022-08-25T14:27:09.122Z,100279.28
2022-08-25T14:29:41.417Z,100273.97
2022-08-25T14:32:08.110Z,100269.47
2022-08-25T14:34:36.868Z,100264.06
2022-08-25T14:37:10.099Z,100266.72
2022-08-25T14:39:37.506Z,100265.75
2022-08-25T14:42:05.391Z,100257.75
2022-08-25T14:44:32.832Z,100257.66
2022-08-25T14:47:00.056Z,100260.22
2022-08-25T14:49:29.854Z,100257.53
2022-08-25T14:51:57.488Z,100252.22
2022-08-25T14:54:26.150Z,100262.81
2022-08-25T14:56:53.422Z,100258.31
2022-08-25T14:59:20.023Z,100257.34
2022-08-25T15:01:47.115Z,100252.88
2022-08-25T15:04:22.294Z,100255.53
2022-08-25T15:06:51.335Z,100258.97
2022-08-25T15:09:18.561Z,100248.31
2022-08-25T15:11:56.091Z,100259.84
2022-08-25T15:14:28.828Z,100258.88
2022-08-25T15:16:59.777Z,100259.84
2022-08-25T15:19:27.492Z,100252.56
2022-08-25T15:21:54.310Z,100253.41
2022-08-25T15:24:25.639Z,100254.28
2022-08-25T15:29:29.153Z,100256.88
2022-08-25T15:31:56.280Z,100248.00
2022-08-25T15:34:22.906Z,100254.09
2022-08-25T15:36:49.479Z,100254.09
2022-08-25T15:39:17.495Z,100248.75
2022-08-25T15:41:48.246Z,100238.94
2022-08-25T15:44:16.261Z,100240.63
2022-08-25T15:46:46.999Z,100245.13
2022-08-25T15:49:20.884Z,100240.63
2022-08-25T15:51:51.184Z,100242.34
2022-08-25T15:54:17.763Z,100233.41
2022-08-25T15:56:44.612Z,100227.22
2022-08-25T15:59:13.503Z,100229.75
2022-08-25T16:01:40.558Z,100224.44
2022-08-25T16:04:07.298Z,100219.94
2022-08-25T16:06:34.124Z,100226.97
2022-08-25T16:09:01.150Z,100224.31
2022-08-25T16:11:29.456Z,100222.50
2022-08-25T16:13:56.981Z,100227.84
2022-08-25T16:16:25.208Z,100218.00
2022-08-25T16:18:52.080Z,100220.69
2022-08-25T16:21:21.645Z,100219.75
2022-08-25T16:24:00.327Z,100221.56
2022-08-25T16:26:29.515Z,100221.44
2022-08-25T16:28:56.098Z,100221.44
2022-08-25T16:31:23.932Z,100212.59
2022-08-25T16:33:53.496Z,100210.78
2022-08-25T16:36:24.352Z,100213.37
2022-08-25T16:38:53.995Z,100212.50
2022-08-25T16:41:24.226Z,100216.03
2022-08-25T16:43:51.161Z,100222.22
2022-08-25T16:46:20.331Z,100214.22
2022-08-25T16:48:47.231Z,100224.81
2022-08-25T16:51:15.650Z,100221.28
2022-08-25T16:54:04.676Z,100215.94
2022-08-25T16:56:33.096Z,100214.13
2022-08-25T16:59:00.591Z,100212.31
2022-08-25T17:01:27.746Z,100219.34
2022-08-25T17:03:55.849Z,100222.03
2022-08-25T17:06:22.908Z,100222.03
2022-08-25T17:08:50.940Z,100229.19
2022-08-25T17:11:23.052Z,100230.03
2022-08-25T17:13:52.024Z,100234.41
2022-08-25T17:16:19.356Z,100237.06
2022-08-25T17:18:47.911Z,100230.78
2022-08-25T17:21:24.458Z,100229.91
2022-08-25T17:23:52.978Z,100231.62
2022-08-25T17:26:19.868Z,100235.19
2022-08-25T17:28:54.751Z,100237.84
2022-08-25T17:31:25.117Z,100235.19
2022-08-25T17:33:52.346Z,100238.69
2022-08-25T17:36:18.955Z,100239.56
2022-08-25T17:38:45.589Z,100240.41
2022-08-25T17:41:12.174Z,100240.41
2022-08-25T17:43:39.605Z,100249.25
2022-08-25T17:46:06.791Z,100242.97
2022-08-25T17:48:33.614Z,100241.16
2022-08-25T17:51:00.568Z,100240.28
2022-08-25T17:53:27.323Z,100244.78
2022-08-25T17:56:02.369Z,100243.81
2022-08-25T17:58:29.373Z,100241.16
2022-08-25T18:00:56.660Z,100250.00
2022-08-25T18:03:23.235Z,100255.34
2022-08-25T18:05:50.331Z,100257.94
2022-08-25T18:08:18.153Z,100261.56
2022-08-25T18:10:46.498Z,100259.75
2022-08-25T18:13:13.359Z,100257.94
2022-08-25T18:15:42.340Z,100258.78
2022-08-25T18:18:09.762Z,100264.13
2022-08-25T18:20:39.201Z,100271.28
2022-08-25T18:23:09.414Z,100272.97
2022-08-25T18:25:36.410Z,100265.81
2022-08-25T18:28:08.629Z,100274.69
2022-08-25T18:30:36.068Z,100265.81
2022-08-25T18:33:02.687Z,100274.69
2022-08-25T18:35:29.383Z,100263.16
2022-08-25T18:38:14.672Z,100266.59
2022-08-25T18:40:41.379Z,100269.25
2022-08-25T18:43:10.729Z,100268.31
2022-08-25T18:45:41.487Z,100263.94
2022-08-25T18:48:10.687Z,100268.31
2022-08-25T18:50:42.580Z,100261.25
2022-08-25T18:53:10.091Z,100264.66
2022-08-25T18:55:37.246Z,100257.63
2022-08-25T18:58:04.442Z,100260.28
2022-08-25T19:00:31.269Z,100257.63
2022-08-25T19:03:00.336Z,100259.31
2022-08-25T19:05:31.703Z,100262.84
2022-08-25T19:08:04.630Z,100271.72
2022-08-25T19:10:32.387Z,100261.03
2022-08-25T19:13:07.945Z,100263.69
2022-08-25T19:15:35.056Z,100260.06
2022-08-25T19:18:02.139Z,100266.25
2022-08-25T19:20:30.558Z,100268.06
2022-08-25T19:22:57.852Z,100266.25
2022-08-25T19:25:25.145Z,100270.75
2022-08-25T19:28:00.416Z,100275.16
2022-08-25T19:30:28.451Z,100274.28
2022-08-25T19:32:56.215Z,100273.34
2022-08-25T19:35:37.454Z,100264.47
2022-08-25T19:38:07.171Z,100265.31
2022-08-25T19:40:54.383Z,100269.81
2022-08-25T19:43:21.212Z,100268.84
2022-08-25T19:45:50.313Z,100266.19
2022-08-25T19:48:18.322Z,100265.22
2022-08-25T19:50:45.268Z,100273.22
2022-08-25T19:53:11.867Z,100266.06
2022-08-25T19:55:39.696Z,100266.06
2022-08-25T19:58:07.907Z,100274.06
2022-08-25T20:00:35.442Z,100264.25
2022-08-25T20:03:04.094Z,100269.59
2022-08-25T20:05:30.971Z,100271.28
2022-08-25T20:07:57.715Z,100267.78
2022-08-25T20:10:26.514Z,100268.63
2022-08-25T20:12:55.193Z,100268.63
2022-08-25T20:15:21.891Z,100262.44
2022-08-25T20:17:50.160Z,100264.16
2022-08-25T20:20:23.411Z,100266.84
2022-08-25T20:22:50.000Z,100262.34
2022-08-25T20:25:23.295Z,100268.53
2022-08-25T20:27:53.636Z,100277.41
2022-08-25T20:30:28.441Z,100273.03
2022-08-25T20:32:55.924Z,100272.06
2022-08-25T20:35:26.495Z,100271.09
2022-08-25T20:37:53.550Z,100276.44
2022-08-25T20:40:25.721Z,100275.59
2022-08-25T20:42:52.912Z,100276.44
2022-08-25T20:45:21.810Z,100270.25
2022-08-25T20:47:49.398Z,100270.25
2022-08-25T20:50:16.203Z,100278.13
2022-08-25T20:52:43.266Z,100278.13
2022-08-25T20:55:10.603Z,100271.94
2022-08-25T20:57:38.923Z,100275.47
2022-08-25T21:00:06.484Z,100277.22
2022-08-25T21:02:33.862Z,100273.66
2022-08-25T21:05:01.069Z,100276.31
2022-08-25T21:07:28.283Z,100270.13
2022-08-25T21:09:54.886Z,100271.88
2022-08-25T21:12:21.592Z,100273.66
2022-08-25T21:14:48.508Z,100278.06
2022-08-25T21:17:15.323Z,100276.25
2022-08-25T21:19:45.982Z,100270.91
2022-08-25T21:22:12.675Z,100269.09
2022-08-25T21:24:39.363Z,100260.22
2022-08-25T21:27:06.218Z,100251.25
2022-08-25T21:29:32.921Z,100255.72
2022-08-25T21:31:59.774Z,100253.06
2022-08-25T21:34:28.842Z,100253.78
2022-08-25T21:37:00.111Z,100260.09
2022-08-25T21:39:28.070Z,100254.75
2022-08-25T21:41:55.454Z,100247.59
2022-08-25T21:44:22.103Z,100263.63
2022-08-25T21:46:54.427Z,100260.97
2022-08-25T21:49:21.481Z,100264.47
2022-08-25T21:51:50.957Z,100259.12
2022-08-25T21:54:24.056Z,100255.53
2022-08-25T21:56:52.454Z,100255.53
2022-08-25T21:59:22.254Z,100249.31
2022-08-25T22:01:48.937Z,100254.56
2022-08-25T22:04:17.570Z,100251.97
2022-08-25T22:06:45.343Z,100255.41
2022-08-25T22:09:13.346Z,100263.44
2022-08-25T22:11:41.270Z,100260.75
2022-08-25T22:14:08.027Z,100262.47
2022-08-25T22:16:34.959Z,100258.09
2022-08-25T22:19:02.362Z,100254.44
2022-08-25T22:21:28.988Z,100259.78
2022-08-25T22:23:58.499Z,100266.00
2022-08-25T22:26:27.434Z,100264.16
2022-08-25T22:28:54.505Z,100271.31
2022-08-25T22:31:21.292Z,100270.47
2022-08-25T22:33:48.375Z,100266.84
2022-08-25T22:36:22.008Z,100262.34
2022-08-25T22:38:48.692Z,100258.81
2022-08-25T22:41:19.058Z,100257.00
2022-08-25T22:43:49.052Z,100251.66
2022-08-25T22:46:15.772Z,100257.87
2022-08-25T22:48:44.012Z,100253.41
2022-08-25T22:51:17.753Z,100247.19
2022-08-25T22:53:45.136Z,100248.06
2022-08-25T22:56:12.508Z,100254.25
2022-08-25T22:58:39.291Z,100247.09
2022-08-25T23:01:13.363Z,100255.09
2022-08-25T23:03:44.422Z,100247.94
2022-08-25T23:06:24.490Z,100255.09
2022-08-25T23:08:52.352Z,100252.44
2022-08-25T23:11:20.897Z,100247.94
2022-08-25T23:13:47.471Z,100249.66
2022-08-25T23:16:14.324Z,100243.47
2022-08-25T23:18:43.806Z,100247.94
2022-08-25T23:21:29.258Z,100244.31
2022-08-25T23:24:01.952Z,100240.78
2022-08-25T23:26:29.063Z,100241.53
2022-08-25T23:28:55.693Z,100243.34
2022-08-25T23:31:22.282Z,100238.00
2022-08-25T23:33:50.883Z,100235.34
2022-08-25T23:36:17.571Z,100238.00
2022-08-25T23:38:45.673Z,100236.19
2022-08-25T23:41:20.160Z,100232.66
2022-08-25T23:43:47.903Z,100234.41
2022-08-25T23:46:16.892Z,100227.31
2022-08-25T23:48:43.573Z,100228.09
2022-08-25T23:51:10.259Z,100229.91
2022-08-25T23:53:36.881Z,100228.09
2022-08-25T23:56:05.574Z,100224.44
2022-08-25T23:58:32.403Z,100228.94
